createdAt,value
2024-04-24T00:01:23.155Z,3.80
2024-04-24T00:06:25.017Z,3.17
2024-04-24T00:11:27.566Z,6.03
2024-04-24T00:16:29.637Z,5.95
2024-04-24T00:21:31.492Z,5.53
2024-04-24T00:26:34.990Z,3.78
2024-04-24T00:31:36.804Z,3.80
2024-04-24T00:36:38.612Z,5.22
2024-04-24T00:41:40.390Z,3.70
2024-04-24T00:46:43.876Z,5.55
2024-04-24T00:51:47.035Z,8.77
2024-04-24T00:56:48.869Z,9.23
2024-04-24T01:01:51.070Z,6.28
2024-04-24T01:06:52.823Z,4.97
2024-04-24T01:11:55.001Z,4.13
2024-04-24T01:16:59.575Z,3.80
2024-04-24T01:22:32.499Z,5.97
2024-04-24T01:27:34.355Z,5.28
2024-04-24T01:32:36.372Z,4.45
2024-04-24T01:37:38.250Z,5.50
2024-04-24T01:42:40.077Z,6.80
2024-04-24T01:47:42.000Z,4.82
2024-04-24T01:52:43.918Z,4.32
2024-04-24T01:57:45.745Z,4.10
2024-04-24T02:02:47.594Z,3.33
2024-04-24T02:07:49.416Z,4.93
2024-04-24T02:12:51.308Z,5.00
2024-04-24T02:17:53.241Z,4.32
2024-04-24T02:22:55.078Z,5.00
2024-04-24T02:27:56.883Z,5.57
2024-04-24T02:32:59.137Z,3.33
2024-04-24T02:38:00.995Z,4.50
2024-04-24T02:43:03.762Z,4.63
2024-04-24T02:48:06.254Z,4.40
2024-04-24T02:53:08.148Z,4.68
2024-04-24T02:58:10.525Z,4.63
2024-04-24T03:03:12.454Z,4.43
2024-04-24T03:08:14.440Z,5.13
2024-04-24T03:13:16.298Z,3.88
2024-04-24T03:18:18.214Z,4.15
2024-04-24T03:23:20.062Z,5.03
2024-04-24T03:28:21.836Z,7.43
2024-04-24T03:33:23.613Z,4.05
2024-04-24T03:38:25.556Z,4.20
2024-04-24T03:43:27.477Z,3.78
2024-04-24T03:48:29.293Z,4.95
2024-04-24T03:53:31.112Z,4.85
2024-04-24T03:58:32.943Z,3.80
2024-04-24T04:03:34.785Z,4.15
2024-04-24T04:08:37.656Z,5.20
2024-04-24T04:13:39.464Z,5.25
2024-04-24T04:18:41.316Z,5.57
2024-04-24T04:23:43.115Z,4.28
2024-04-24T04:28:44.969Z,5.60
2024-04-24T04:33:47.516Z,4.68
2024-04-24T04:38:49.377Z,5.20
2024-04-24T04:43:51.213Z,4.93
2024-04-24T04:48:53.463Z,4.18
2024-04-24T04:53:55.361Z,7.18
2024-04-24T04:58:57.223Z,4.78
2024-04-24T05:03:59.070Z,5.30
2024-04-24T05:09:01.001Z,10.02
2024-04-24T05:14:02.811Z,4.55
2024-04-24T05:19:04.835Z,5.13
2024-04-24T05:24:06.990Z,5.05
2024-04-24T05:29:09.009Z,5.10
2024-04-24T05:34:11.042Z,6.10
2024-04-24T05:39:12.884Z,6.32
2024-04-24T05:44:14.876Z,4.95
2024-04-24T05:49:16.768Z,6.88
2024-04-24T05:54:18.581Z,5.35
2024-04-24T05:59:20.377Z,4.57
2024-04-24T06:04:22.194Z,3.85
2024-04-24T06:09:24.399Z,7.03
2024-04-24T06:14:26.454Z,6.07
2024-04-24T06:19:28.308Z,5.30
2024-04-24T06:24:30.425Z,5.43
2024-04-24T06:29:33.271Z,7.30
2024-04-24T06:34:35.170Z,7.50
2024-04-24T06:39:36.987Z,4.20
2024-04-24T06:44:38.984Z,8.43
2024-04-24T06:49:40.948Z,4.22
2024-04-24T06:54:42.742Z,4.32
2024-04-24T06:59:46.146Z,7.70
2024-04-24T07:04:47.911Z,3.88
2024-04-24T07:09:50.212Z,3.85
2024-04-24T07:14:52.044Z,4.25
2024-04-24T07:19:53.875Z,6.35
2024-04-24T07:24:55.839Z,7.53
2024-04-24T07:29:59.335Z,5.07
2024-04-24T07:35:01.184Z,3.25
2024-04-24T07:40:03.050Z,8.85
2024-04-24T07:45:05.280Z,6.88
2024-04-24T07:50:07.137Z,5.15
2024-04-24T07:55:08.936Z,3.53
2024-04-24T08:00:11.828Z,3.63
2024-04-24T08:05:14.337Z,3.92
2024-04-24T08:10:16.192Z,5.90
2024-04-24T08:15:18.016Z,4.20
2024-04-24T08:20:19.915Z,4.70
2024-04-24T08:25:21.835Z,5.30
2024-04-24T08:30:23.770Z,4.25
2024-04-24T08:35:25.702Z,4.00
2024-04-24T08:40:27.533Z,5.97
2024-04-24T08:45:30.026Z,3.97
2024-04-24T08:50:32.327Z,3.10
2024-04-24T08:55:36.779Z,2.80
2024-04-24T09:00:39.578Z,4.15
2024-04-24T09:05:41.997Z,3.13
2024-04-24T09:10:43.977Z,4.07
2024-04-24T09:15:47.015Z,4.15
2024-04-24T09:20:50.951Z,5.43
2024-04-24T09:25:53.123Z,4.15
2024-04-24T09:30:55.027Z,3.92
2024-04-24T09:35:57.982Z,4.93
2024-04-24T09:41:01.518Z,7.05
2024-04-24T09:46:05.066Z,3.33
2024-04-24T09:51:12.476Z,3.97
2024-04-24T09:56:24.941Z,4.43
2024-04-24T10:01:28.501Z,6.53
2024-04-24T10:06:32.738Z,4.47
2024-04-24T10:11:38.742Z,4.45
2024-04-24T10:16:40.701Z,4.95
2024-04-24T10:21:44.327Z,6.22
2024-04-24T10:26:47.469Z,5.45
2024-04-24T10:31:51.611Z,6.03
2024-04-24T10:36:55.123Z,5.38
2024-04-24T10:41:57.688Z,6.63
2024-04-24T10:46:59.548Z,6.03
2024-04-24T10:52:01.348Z,7.00
2024-04-24T10:57:06.862Z,6.03
2024-04-24T11:02:19.191Z,8.60
2024-04-24T11:07:28.609Z,5.78
2024-04-24T11:12:42.174Z,7.15
2024-04-24T11:17:44.836Z,5.78
2024-04-24T11:22:47.260Z,7.30
2024-04-24T11:27:49.118Z,5.82
2024-04-24T11:32:53.768Z,6.03
2024-04-24T11:37:55.799Z,8.00
2024-04-24T11:42:57.674Z,7.13
2024-04-24T11:47:59.616Z,10.98
2024-04-24T11:53:03.527Z,6.70
2024-04-24T11:58:15.314Z,6.07
2024-04-24T12:03:19.526Z,8.60
2024-04-24T12:08:29.305Z,6.78
2024-04-24T12:13:32.452Z,6.38
2024-04-24T12:18:34.904Z,4.55
2024-04-24T12:23:36.788Z,4.18
2024-04-24T12:28:38.592Z,5.75
2024-04-24T12:33:42.506Z,6.10
2024-04-24T12:38:44.413Z,9.75
2024-04-24T12:43:46.169Z,11.13
2024-04-24T12:48:54.352Z,13.82
2024-04-24T12:53:56.315Z,13.90
2024-04-24T12:58:58.264Z,15.43
2024-04-24T13:04:01.353Z,9.55
2024-04-24T13:09:03.299Z,10.40
2024-04-24T13:14:05.101Z,10.57
2024-04-24T13:19:07.087Z,9.85
2024-04-24T13:24:09.048Z,9.55
2024-04-24T13:29:11.413Z,11.95
2024-04-24T13:34:13.748Z,11.30
2024-04-24T13:39:15.596Z,12.48
2024-04-24T13:44:18.057Z,12.52
2024-04-24T13:49:19.909Z,12.75
2024-04-24T13:54:21.746Z,20.25
2024-04-24T13:59:23.580Z,16.15
2024-04-24T14:04:25.910Z,18.02
2024-04-24T14:09:27.753Z,16.95
2024-04-24T14:14:30.567Z,13.10
2024-04-24T14:19:32.417Z,17.67
2024-04-24T14:24:34.327Z,14.55
2024-04-24T14:29:36.190Z,14.27
2024-04-24T14:34:38.175Z,12.98
2024-04-24T14:39:39.954Z,13.57
2024-04-24T14:44:41.742Z,14.07
2024-04-24T14:49:46.727Z,12.38
2024-04-24T14:54:49.301Z,11.82
2024-04-24T14:59:51.174Z,12.48
2024-04-24T15:04:52.945Z,12.25
2024-04-24T15:09:55.693Z,11.10
2024-04-24T15:14:58.159Z,9.35
2024-04-24T15:20:00.385Z,9.57
2024-04-24T15:25:02.238Z,11.10
2024-04-24T15:30:04.343Z,10.20
2024-04-24T15:35:08.401Z,8.80
2024-04-24T15:40:10.439Z,11.05
2024-04-24T15:45:12.208Z,7.63
2024-04-24T15:50:14.034Z,8.80
2024-04-24T15:55:15.870Z,7.75
2024-04-24T16:00:17.645Z,7.22
2024-04-24T16:05:19.535Z,7.47
2024-04-24T16:10:24.063Z,7.70
2024-04-24T16:15:25.834Z,5.85
2024-04-24T16:20:27.657Z,5.00
2024-04-24T16:25:29.433Z,4.80
2024-04-24T16:30:31.199Z,4.78
2024-04-24T16:35:34.089Z,7.82
2024-04-24T16:40:36.081Z,6.10
2024-04-24T16:45:37.863Z,5.38
2024-04-24T16:50:39.686Z,4.90
2024-04-24T16:55:42.839Z,5.15
2024-04-24T17:00:46.502Z,5.15
2024-04-24T17:05:48.378Z,3.08
2024-04-24T17:10:50.226Z,3.53
2024-04-24T17:15:52.119Z,4.30
2024-04-24T17:20:55.767Z,3.45
2024-04-24T17:25:57.718Z,3.55
2024-04-24T17:30:59.656Z,4.55
2024-04-24T17:36:01.498Z,4.05
2024-04-24T17:41:03.633Z,4.60
2024-04-24T17:46:07.722Z,4.20
2024-04-24T17:51:09.543Z,4.68
2024-04-24T17:56:11.460Z,5.53
2024-04-24T18:01:14.303Z,5.18
2024-04-24T18:06:16.141Z,7.60
2024-04-24T18:11:18.262Z,8.65
2024-04-24T18:16:20.060Z,9.48
2024-04-24T18:21:22.002Z,8.00
2024-04-24T18:26:26.362Z,4.55
2024-04-24T18:31:33.092Z,5.65
2024-04-24T18:36:36.167Z,6.15
2024-04-24T18:41:37.981Z,5.80
2024-04-24T18:46:39.780Z,5.82
2024-04-24T18:51:41.550Z,8.02
2024-04-24T18:56:43.837Z,9.05
2024-04-24T19:01:46.437Z,5.07
2024-04-24T19:06:48.205Z,6.47
2024-04-24T19:11:50.140Z,8.65
2024-04-24T19:16:51.935Z,8.60
2024-04-24T19:21:53.695Z,7.53
2024-04-24T19:26:55.472Z,11.00
2024-04-24T19:31:58.370Z,9.85
2024-04-24T19:37:00.275Z,13.05
2024-04-24T19:42:02.453Z,11.38
2024-04-24T19:47:04.480Z,11.65
2024-04-24T19:52:06.331Z,11.63
2024-04-24T19:57:08.125Z,12.20
2024-04-24T20:02:10.285Z,12.82
2024-04-24T20:07:13.848Z,13.15
2024-04-24T20:12:15.754Z,11.88
2024-04-24T20:17:17.664Z,13.32
2024-04-24T20:22:19.488Z,10.00
2024-04-24T20:27:21.319Z,10.35
2024-04-24T20:32:23.359Z,7.13
2024-04-24T20:37:25.170Z,9.65
2024-04-24T20:42:27.512Z,7.00
2024-04-24T20:47:29.440Z,7.93
2024-04-24T20:52:31.345Z,5.70
2024-04-24T20:57:33.333Z,7.47
2024-04-24T21:02:36.379Z,4.93
2024-04-24T21:07:38.270Z,4.65
2024-04-24T21:12:40.027Z,4.68
2024-04-24T21:17:42.964Z,5.78
2024-04-24T21:22:45.066Z,5.00
2024-04-24T21:27:46.862Z,5.90
2024-04-24T21:32:48.752Z,6.53
2024-04-24T21:37:51.517Z,4.93
2024-04-24T21:42:53.342Z,5.70
2024-04-24T21:47:55.875Z,4.40
2024-04-24T21:52:58.743Z,4.43
2024-04-24T21:58:05.343Z,6.60
2024-04-24T22:03:07.525Z,4.25
2024-04-24T22:08:09.468Z,4.93
2024-04-24T22:13:11.321Z,6.22
2024-04-24T22:18:14.161Z,5.38
2024-04-24T22:23:16.133Z,4.55
2024-04-24T22:28:17.975Z,10.00
2024-04-24T22:33:21.806Z,5.65
2024-04-24T22:38:23.701Z,4.75
2024-04-24T22:43:25.540Z,5.25
2024-04-24T22:48:27.414Z,4.22
2024-04-24T22:53:29.471Z,5.75
2024-04-24T22:58:31.460Z,6.15
2024-04-24T23:03:33.265Z,6.15
2024-04-24T23:08:35.133Z,4.95
2024-04-24T23:13:37.097Z,3.60
2024-04-24T23:18:39.147Z,3.90
2024-04-24T23:23:41.224Z,5.68
2024-04-24T23:28:43.091Z,6.43
2024-04-24T23:33:45.652Z,4.35
2024-04-24T23:38:47.445Z,5.80
2024-04-24T23:43:50.078Z,7.90
2024-04-24T23:48:53.428Z,4.80
2024-04-24T23:53:55.641Z,4.63
2024-04-24T23:58:57.491Z,5.60
